Time;durP1;ratioP1;P1;durP2;ratioP2;P2;SDS_P1;SDS_P2;PMS_P1;PMS_P2;Temp;Humidity;BMP_temperature;BMP_pressure;BME280_temperature;BME280_humidity;BME280_pressure;Samples;Min_cycle;Max_cycle;Signal;HPM_P1;HPM_P2
2021/08/02 00:01:10;;;;;;;0.98;0.57;;;14.50;99.90;;;;;;5037112;28;20207;-62
2021/08/02 00:03:45;;;;;;;0.40;0.20;;;14.50;99.90;;;;;;5036087;28;20185;-62
2021/08/02 00:06:17;;;;;;;0.40;0.20;;;14.50;99.90;;;;;;5037067;28;20185;-62
2021/08/02 00:08:43;;;;;;;0.40;0.20;;;14.50;99.90;;;;;;5036819;28;20301;-62
2021/08/02 00:11:08;;;;;;;1.13;0.30;;;14.50;99.90;;;;;;5037018;28;20201;-62
2021/08/02 00:13:35;;;;;;;0.40;0.20;;;14.50;99.90;;;;;;5036872;28;20182;-62
2021/08/02 00:16:05;;;;;;;0.50;0.30;;;14.60;99.90;;;;;;5036895;28;20174;-62
2021/08/02 00:18:32;;;;;;;0.75;0.75;;;14.50;99.90;;;;;;5036607;28;20201;-62
2021/08/02 00:21:02;;;;;;;0.40;0.20;;;14.60;99.90;;;;;;5036881;28;20188;-63
2021/08/02 00:23:29;;;;;;;0.40;0.20;;;14.60;99.90;;;;;;5036808;28;20186;-63
2021/08/02 00:26:00;;;;;;;0.40;0.20;;;14.70;99.90;;;;;;5036720;28;20225;-63
2021/08/02 00:28:26;;;;;;;0.40;0.20;;;14.90;99.90;;;;;;5036357;28;20653;-62
2021/08/02 00:30:52;;;;;;;0.43;0.20;;;14.90;99.90;;;;;;5036650;28;20181;-62
2021/08/02 00:33:18;;;;;;;0.50;0.40;;;14.90;99.90;;;;;;5036850;28;20204;-62
2021/08/02 00:36:22;;;;;;;0.40;0.20;;;14.90;99.90;;;;;;5036681;28;20244;-62
2021/08/02 00:39:00;;;;;;;0.40;0.20;;;14.90;99.90;;;;;;5035653;28;20204;-62
2021/08/02 00:42:03;;;;;;;0.40;0.25;;;14.90;99.90;;;;;;5036577;28;20185;-62
2021/08/02 00:44:43;;;;;;;0.40;0.20;;;15.00;99.90;;;;;;5036397;28;20230;-62
2021/08/02 00:47:17;;;;;;;0.40;0.20;;;15.10;99.90;;;;;;5036385;28;20185;-62
2021/08/02 00:49:50;;;;;;;0.40;0.10;;;15.10;99.90;;;;;;5036228;28;20246;-62
2021/08/02 00:52:19;;;;;;;0.40;0.22;;;15.00;99.90;;;;;;5036403;28;20686;-62
2021/08/02 00:54:46;;;;;;;0.50;0.30;;;15.10;99.90;;;;;;5036225;28;20189;-62
2021/08/02 00:57:15;;;;;;;0.50;0.20;;;15.00;99.90;;;;;;5036140;28;20231;-62
2021/08/02 00:59:43;;;;;;;1.02;0.82;;;14.90;99.90;;;;;;5035917;28;20205;-62
2021/08/02 01:02:10;;;;;;;0.40;0.25;;;14.90;99.90;;;;;;5036122;28;20611;-62
2021/08/02 01:04:36;;;;;;;0.40;0.20;;;14.90;99.90;;;;;;5036278;28;20181;-62
2021/08/02 01:07:07;;;;;;;0.40;0.20;;;15.10;99.90;;;;;;5035942;28;20177;-62
2021/08/02 01:09:37;;;;;;;0.50;0.30;;;15.00;99.90;;;;;;5035860;28;20251;-62
2021/08/02 01:12:06;;;;;;;0.95;0.95;;;15.00;99.90;;;;;;5035929;28;20178;-62
2021/08/02 01:14:34;;;;;;;0.40;0.20;;;15.00;99.90;;;;;;5035832;28;20212;-62
2021/08/02 01:17:00;;;;;;;0.40;0.20;;;14.90;99.90;;;;;;5035757;28;20192;-62
2021/08/02 01:19:26;;;;;;;0.40;0.20;;;14.80;99.90;;;;;;5035571;28;20260;-62
2021/08/02 01:21:59;;;;;;;0.40;0.20;;;14.80;99.90;;;;;;5035733;28;20189;-62
2021/08/02 01:24:25;;;;;;;0.40;0.20;;;14.70;99.90;;;;;;5035703;28;20238;-62
2021/08/02 01:26:59;;;;;;;0.40;0.20;;;14.70;99.90;;;;;;5035734;28;20606;-62
2021/08/02 01:30:02;;;;;;;0.98;0.85;;;14.70;99.90;;;;;;5035510;28;20458;-62
2021/08/02 01:32:28;;;;;;;0.50;0.38;;;14.70;99.90;;;;;;5035665;28;20269;-62
2021/08/02 01:34:54;;;;;;;0.40;0.20;;;14.70;99.90;;;;;;5035566;28;20260;-62
2021/08/02 01:37:19;;;;;;;0.57;0.30;;;14.60;99.90;;;;;;5034474;28;20181;-62
2021/08/02 01:39:55;;;;;;;0.40;0.20;;;14.60;99.90;;;;;;5035441;28;20775;-62
2021/08/02 01:42:21;;;;;;;0.40;0.20;;;14.60;99.90;;;;;;5035485;28;20192;-62
2021/08/02 01:44:47;;;;;;;0.40;0.20;;;14.60;99.90;;;;;;5035262;28;20177;-62
2021/08/02 01:47:36;;;;;;;1.27;0.50;;;14.50;99.90;;;;;;5035149;28;20558;-62
2021/08/02 01:50:35;;;;;;;0.40;0.32;;;14.60;99.90;;;;;;5035210;28;20181;-62
2021/08/02 01:53:33;;;;;;;0.40;0.20;;;14.50;99.90;;;;;;5034951;28;20217;-62
2021/08/02 01:56:06;;;;;;;0.40;0.20;;;14.50;99.90;;;;;;5035119;28;20212;-62
2021/08/02 01:58:40;;;;;;;0.40;0.20;;;14.50;99.90;;;;;;5034808;28;20192;-62
2021/08/02 02:01:07;;;;;;;0.52;0.30;;;14.60;99.90;;;;;;5034529;28;20177;-62
2021/08/02 02:03:35;;;;;;;0.40;0.30;;;14.50;99.90;;;;;;5034936;28;20177;-62
2021/08/02 02:06:12;;;;;;;0.60;0.30;;;14.50;99.90;;;;;;5034866;28;20174;-62
2021/08/02 02:08:42;;;;;;;0.40;0.20;;;14.40;99.90;;;;;;5034621;28;20668;-63
2021/08/02 02:11:09;;;;;;;0.40;0.20;;;14.40;99.90;;;;;;5034881;28;20182;-63
2021/08/02 02:13:44;;;;;;;0.40;0.20;;;14.30;99.90;;;;;;5034737;28;20610;-63
2021/08/02 02:16:13;;;;;;;0.40;0.20;;;14.30;99.90;;;;;;5034764;28;20239;-63
2021/08/02 02:18:43;;;;;;;0.40;0.20;;;14.20;99.90;;;;;;5034434;28;20562;-63
2021/08/02 02:21:11;;;;;;;0.40;0.20;;;14.30;99.90;;;;;;5034665;28;20682;-63
2021/08/02 02:23:38;;;;;;;0.40;0.30;;;14.20;99.90;;;;;;5034603;28;20181;-63
2021/08/02 02:26:06;;;;;;;0.40;0.20;;;14.20;99.90;;;;;;5034533;28;20187;-63
2021/08/02 02:28:34;;;;;;;0.60;0.40;;;14.20;99.90;;;;;;5034222;28;20209;-63
2021/08/02 02:31:00;;;;;;;0.40;0.20;;;14.20;99.90;;;;;;5034440;28;20617;-63
2021/08/02 02:33:29;;;;;;;0.40;0.20;;;14.20;99.90;;;;;;5034395;28;20178;-63
2021/08/02 02:35:56;;;;;;;0.40;0.20;;;14.20;99.90;;;;;;5033410;28;20744;-63
2021/08/02 02:38:22;;;;;;;0.40;0.20;;;14.10;99.90;;;;;;5034035;28;20181;-63
2021/08/02 02:40:48;;;;;;;0.40;0.20;;;14.10;99.90;;;;;;5034234;28;20193;-63
2021/08/02 02:43:15;;;;;;;0.40;0.20;;;14.10;99.90;;;;;;5034149;28;20193;-63
2021/08/02 02:45:43;;;;;;;0.40;0.20;;;14.00;99.90;;;;;;5034170;28;20323;-63
2021/08/02 02:48:10;;;;;;;0.40;0.20;;;14.10;99.90;;;;;;5033931;28;20216;-63
2021/08/02 02:50:36;;;;;;;0.40;0.20;;;14.00;99.90;;;;;;5034114;28;20184;-63
2021/08/02 02:53:03;;;;;;;0.40;0.20;;;14.10;99.90;;;;;;5034180;28;20193;-63
2021/08/02 02:55:31;;;;;;;0.40;0.20;;;14.20;99.90;;;;;;5033977;28;20284;-63
2021/08/02 02:57:57;;;;;;;0.30;0.20;;;14.30;99.90;;;;;;5033939;28;20185;-63
2021/08/02 03:00:23;;;;;;;0.40;0.20;;;14.30;99.90;;;;;;5033814;28;20188;-63
2021/08/02 03:02:51;;;;;;;0.30;0.10;;;14.40;99.90;;;;;;5033962;28;20762;-63
2021/08/02 03:05:18;;;;;;;0.50;0.30;;;14.50;99.90;;;;;;5033906;28;20197;-63
2021/08/02 03:07:44;;;;;;;1.30;1.30;;;14.40;99.90;;;;;;5033700;28;20658;-63
2021/08/02 03:10:12;;;;;;;0.95;0.30;;;14.30;99.90;;;;;;5033819;28;20526;-62
2021/08/02 03:12:38;;;;;;;0.40;0.20;;;14.30;99.90;;;;;;5033319;28;20173;-63
2021/08/02 03:15:04;;;;;;;1.03;0.67;;;14.30;99.90;;;;;;5034310;28;20192;-65
2021/08/02 03:17:30;;;;;;;0.40;0.22;;;14.30;99.90;;;;;;5036619;28;20205;-67
2021/08/02 03:19:56;;;;;;;0.38;0.20;;;14.20;99.90;;;;;;5036623;28;20185;-64
2021/08/02 03:22:22;;;;;;;0.40;0.20;;;14.20;99.90;;;;;;5033674;28;20207;-62
2021/08/02 03:24:52;;;;;;;0.40;0.20;;;14.30;99.90;;;;;;5033706;28;20556;-62
2021/08/02 03:27:29;;;;;;;0.40;0.22;;;14.20;99.90;;;;;;5034930;28;20244;-65
2021/08/02 03:29:59;;;;;;;0.40;0.22;;;14.20;99.90;;;;;;5036594;28;20170;-66
2021/08/02 03:32:26;;;;;;;0.40;0.20;;;14.20;99.90;;;;;;5036548;28;20219;-66
2021/08/02 03:34:56;;;;;;;0.30;0.20;;;14.30;99.90;;;;;;5036315;28;20603;-65
2021/08/02 03:37:24;;;;;;;0.40;0.20;;;14.40;99.90;;;;;;5036593;28;20181;-65
2021/08/02 03:39:52;;;;;;;0.40;0.20;;;14.40;99.90;;;;;;5035975;28;20174;-65
2021/08/02 03:42:19;;;;;;;0.40;0.20;;;14.30;99.90;;;;;;5036284;28;20861;-67
2021/08/02 03:44:47;;;;;;;0.50;0.20;;;14.30;99.90;;;;;;5036161;28;20180;-66
2021/08/02 03:47:13;;;;;;;0.30;0.20;;;14.30;99.90;;;;;;5035670;28;20670;-66
2021/08/02 03:49:39;;;;;;;0.40;0.20;;;14.30;99.90;;;;;;5035932;28;20305;-66
2021/08/02 03:52:05;;;;;;;0.38;0.20;;;14.40;99.90;;;;;;5035313;28;20189;-64
2021/08/02 03:54:31;;;;;;;0.33;0.17;;;14.50;99.90;;;;;;5033192;28;20186;-63
2021/08/02 03:56:59;;;;;;;0.40;0.20;;;14.50;99.90;;;;;;5033289;28;20189;-63
2021/08/02 03:59:25;;;;;;;0.47;0.47;;;14.50;99.90;;;;;;5033088;28;20595;-63
2021/08/02 04:01:51;;;;;;;0.40;0.20;;;14.50;99.90;;;;;;5032377;28;20181;-63
2021/08/02 04:04:16;;;;;;;0.83;0.80;;;14.40;99.90;;;;;;5033335;28;20189;-63
2021/08/02 04:06:42;;;;;;;0.40;0.20;;;14.40;99.90;;;;;;5033187;28;20529;-63
2021/08/02 04:09:10;;;;;;;2.73;0.93;;;14.50;99.90;;;;;;5033057;28;20524;-63
2021/08/02 04:11:36;;;;;;;0.40;0.20;;;14.40;99.90;;;;;;5033287;28;20633;-63
2021/08/02 04:14:02;;;;;;;0.40;0.20;;;14.50;99.90;;;;;;5033240;28;20603;-63
2021/08/02 04:16:27;;;;;;;0.40;0.20;;;14.50;99.90;;;;;;5033017;28;20192;-63
2021/08/02 04:18:53;;;;;;;0.40;0.20;;;14.60;99.90;;;;;;5031998;28;20592;-65
2021/08/02 04:21:18;;;;;;;0.40;0.30;;;14.60;99.90;;;;;;5033049;28;20178;-66
2021/08/02 04:23:44;;;;;;;1.00;0.83;;;14.50;99.90;;;;;;5034450;28;20173;-66
2021/08/02 04:26:12;;;;;;;0.73;0.30;;;14.50;99.90;;;;;;5036768;28;20650;-66
2021/08/02 04:28:42;;;;;;;0.40;0.20;;;14.50;99.90;;;;;;5036572;28;20630;-66
2021/08/02 04:31:09;;;;;;;0.45;0.25;;;14.50;99.90;;;;;;5035656;28;20185;-66
2021/08/02 04:33:34;;;;;;;0.40;0.20;;;14.50;99.90;;;;;;5035653;28;20198;-67
2021/08/02 04:36:00;;;;;;;0.50;0.40;;;14.60;99.90;;;;;;5036609;28;20216;-66
2021/08/02 04:38:25;;;;;;;0.40;0.20;;;14.60;99.90;;;;;;5036699;28;20177;-67
2021/08/02 04:40:51;;;;;;;0.40;0.20;;;14.60;99.90;;;;;;5036882;28;20185;-66
2021/08/02 04:43:17;;;;;;;0.40;0.20;;;14.70;99.90;;;;;;5036745;28;20186;-68
2021/08/02 04:45:42;;;;;;;0.40;0.17;;;14.70;99.90;;;;;;5036587;28;20260;-66
2021/08/02 04:48:08;;;;;;;0.40;0.20;;;14.80;99.90;;;;;;5036030;28;20213;-66
2021/08/02 04:50:33;;;;;;;0.40;0.20;;;14.80;99.90;;;;;;5036438;28;20188;-66
2021/08/02 04:52:59;;;;;;;0.40;0.20;;;14.90;99.90;;;;;;5036337;28;20545;-66
2021/08/02 04:55:24;;;;;;;1.33;0.87;;;14.90;99.90;;;;;;5036223;28;20208;-66
2021/08/02 04:57:50;;;;;;;0.70;0.57;;;14.80;99.90;;;;;;5036198;28;20554;-66
2021/08/02 05:00:16;;;;;;;0.50;0.40;;;14.70;99.90;;;;;;5036046;28;20178;-65
2021/08/02 05:02:41;;;;;;;0.30;0.10;;;14.70;99.90;;;;;;5036094;28;20174;-65
2021/08/02 05:05:07;;;;;;;0.40;0.20;;;14.80;99.90;;;;;;5035079;28;20433;-64
2021/08/02 05:07:33;;;;;;;0.40;0.30;;;15.00;99.90;;;;;;5035963;28;20174;-64
2021/08/02 05:09:59;;;;;;;0.40;0.20;;;15.10;99.90;;;;;;5035888;28;20183;-63
2021/08/02 05:12:24;;;;;;;0.50;0.30;;;15.00;99.90;;;;;;5035997;28;20273;-63
2021/08/02 05:14:50;;;;;;;0.40;0.20;;;15.10;99.90;;;;;;5035969;28;20185;-63
2021/08/02 05:17:15;;;;;;;0.40;0.30;;;15.10;99.90;;;;;;5034834;28;20247;-63
2021/08/02 05:19:41;;;;;;;0.60;0.20;;;15.10;99.90;;;;;;5035727;28;20181;-63
2021/08/02 05:22:06;;;;;;;1.10;0.63;;;15.20;99.90;;;;;;5035710;28;20209;-63
2021/08/02 05:24:32;;;;;;;0.40;0.20;;;15.30;99.90;;;;;;5035732;28;20177;-63
2021/08/02 05:26:58;;;;;;;1.23;0.70;;;15.40;99.90;;;;;;5035724;28;20207;-63
2021/08/02 05:29:24;;;;;;;0.70;0.57;;;15.50;99.90;;;;;;5035466;28;20237;-63
2021/08/02 05:31:50;;;;;;;0.40;0.20;;;15.60;99.90;;;;;;5035478;28;20534;-63
2021/08/02 05:34:15;;;;;;;0.40;0.20;;;15.50;99.90;;;;;;5035349;28;20207;-63
2021/08/02 05:36:41;;;;;;;0.40;0.20;;;15.60;99.90;;;;;;5034668;28;20209;-63
2021/08/02 05:39:08;;;;;;;0.40;0.20;;;15.60;99.90;;;;;;5035318;28;20245;-63
2021/08/02 05:41:33;;;;;;;0.40;0.20;;;15.40;99.90;;;;;;5035523;28;20519;-63
2021/08/02 05:43:59;;;;;;;0.40;0.20;;;15.40;99.90;;;;;;5034400;28;20236;-64
2021/08/02 05:46:43;;;;;;;0.50;0.27;;;15.50;99.90;;;;;;5034331;28;20652;-64
2021/08/02 05:49:22;;;;;;;0.40;0.30;;;15.80;99.90;;;;;;5035108;28;20940;-64
2021/08/02 05:51:53;;;;;;;0.50;0.30;;;15.90;94.20;;;;;;5034973;28;20439;-64
2021/08/02 05:54:19;;;;;;;0.40;0.23;;;15.90;47.60;;;;;;5035010;28;20956;-64
2021/08/02 05:56:44;;;;;;;0.50;0.20;;;15.90;74.20;;;;;;5035921;28;20538;-64
2021/08/02 05:59:10;;;;;;;0.40;0.10;;;16.10;38.40;;;;;;5054555;28;20185;-64
2021/08/02 06:01:35;;;;;;;0.83;0.60;;;16.30;1.00;;;;;;5053812;28;20286;-64
2021/08/02 06:04:01;;;;;;;0.40;0.20;;;16.40;1.00;;;;;;5054517;28;20189;-64
2021/08/02 06:06:26;;;;;;;0.40;0.20;;;16.30;1.00;;;;;;5054820;28;20213;-64
2021/08/02 06:08:52;;;;;;;0.60;0.47;;;16.50;1.00;;;;;;5036949;28;20208;-64
2021/08/02 06:11:18;;;;;;;0.40;0.20;;;16.70;1.00;;;;;;5035063;28;20174;-64
2021/08/02 06:13:44;;;;;;;0.40;0.20;;;16.50;1.00;;;;;;5046642;28;20180;-64
2021/08/02 06:16:10;;;;;;;0.50;0.20;;;16.50;1.00;;;;;;5055175;28;20306;-63
2021/08/02 06:18:35;;;;;;;0.40;0.20;;;16.50;1.00;;;;;;5054889;28;20451;-64
2021/08/02 06:21:01;;;;;;;0.40;0.20;;;16.60;1.00;;;;;;5055216;28;20203;-64
2021/08/02 06:23:26;;;;;;;0.40;0.17;;;16.60;1.00;;;;;;5055125;28;20195;-64
2021/08/02 06:25:52;;;;;;;0.40;0.20;;;16.70;1.00;;;;;;5055256;28;20185;-66
2021/08/02 06:28:17;;;;;;;0.70;0.60;;;16.70;1.00;;;;;;5054061;28;20208;-66
2021/08/02 06:30:43;;;;;;;0.40;0.17;;;16.70;1.00;;;;;;5043222;28;20680;-67
2021/08/02 06:33:09;;;;;;;0.40;0.20;;;16.70;1.00;;;;;;5034611;28;20296;-66
2021/08/02 06:35:36;;;;;;;1.23;0.97;;;16.90;1.00;;;;;;5033419;28;20864;-61
2021/08/02 06:38:03;;;;;;;0.40;0.20;;;16.90;1.00;;;;;;5034142;28;20240;-61
2021/08/02 06:40:28;;;;;;;0.40;0.20;;;16.90;1.00;;;;;;5034149;28;20436;-64
2021/08/02 06:42:54;;;;;;;0.40;0.20;;;16.80;1.00;;;;;;5034202;28;20431;-65
2021/08/02 06:45:19;;;;;;;0.50;0.40;;;16.90;1.00;;;;;;5034108;28;20206;-65
2021/08/02 06:47:45;;;;;;;0.40;0.20;;;17.00;1.00;;;;;;5033711;28;20823;-65
2021/08/02 06:50:11;;;;;;;0.67;0.40;;;17.10;1.00;;;;;;5033965;28;20190;-69
2021/08/02 06:52:36;;;;;;;0.40;0.20;;;17.20;1.00;;;;;;5033864;28;20490;-68
2021/08/02 06:55:02;;;;;;;0.40;0.20;;;17.50;1.00;;;;;;5032824;28;20208;-69
2021/08/02 06:57:28;;;;;;;0.40;0.20;;;17.90;1.00;;;;;;5033700;28;20186;-69
2021/08/02 06:59:57;;;;;;;0.50;0.30;;;17.90;99.90;;;;;;5033840;28;20189;-69
2021/08/02 07:02:22;;;;;;;0.50;0.30;;;18.60;99.90;;;;;;5034049;28;20173;-69
2021/08/02 07:04:48;;;;;;;0.40;0.20;;;19.20;99.90;;;;;;5033922;28;20962;-69
2021/08/02 07:07:14;;;;;;;0.50;0.20;;;19.20;1.00;;;;;;5033897;28;20182;-69
2021/08/02 07:09:39;;;;;;;0.50;0.30;;;18.80;99.90;;;;;;5033733;28;20197;-69
2021/08/02 07:12:05;;;;;;;1.03;0.93;;;18.10;40.30;;;;;;5033004;28;20280;-70
2021/08/02 07:14:31;;;;;;;3.63;3.30;;;17.80;99.90;;;;;;5034627;28;20205;-69
2021/08/02 07:16:56;;;;;;;0.40;0.20;;;17.90;99.90;;;;;;5034568;28;20424;-68
2021/08/02 07:19:22;;;;;;;0.40;0.20;;;18.60;1.00;;;;;;5034171;28;20188;-69
2021/08/02 07:21:48;;;;;;;2.10;2.00;;;18.80;99.90;;;;;;5034233;28;20185;-69
2021/08/02 07:24:13;;;;;;;0.47;0.27;;;18.90;99.90;;;;;;5034249;28;20186;-69
2021/08/02 07:26:40;;;;;;;0.40;0.20;;;18.70;1.00;;;;;;5035866;28;20190;-70
2021/08/02 07:29:05;;;;;;;3.77;1.17;;;18.80;1.00;;;;;;5035469;28;20237;-68
2021/08/02 07:31:31;;;;;;;0.40;0.20;;;18.50;99.90;;;;;;5034877;28;20482;-68
2021/08/02 07:33:57;;;;;;;0.40;0.20;;;18.60;1.00;;;;;;5035733;28;20622;-68
2021/08/02 07:36:22;;;;;;;0.40;0.20;;;18.60;99.90;;;;;;5036092;28;20515;-67
2021/08/02 07:38:48;;;;;;;1.13;0.53;;;18.60;99.90;;;;;;5034725;28;20189;-69
2021/08/02 07:41:14;;;;;;;0.40;0.20;;;18.40;1.00;;;;;;5036731;28;20735;-69
2021/08/02 07:43:40;;;;;;;0.40;0.20;;;18.10;1.00;;;;;;5037151;28;20189;-69
2021/08/02 07:46:06;;;;;;;0.60;0.47;;;18.20;50.90;;;;;;5035241;28;20515;-69
2021/08/02 07:48:32;;;;;;;0.60;0.27;;;18.50;1.00;;;;;;5038691;28;20544;-69
2021/08/02 07:50:58;;;;;;;0.40;0.20;;;18.70;1.00;;;;;;5037852;28;20450;-69
2021/08/02 07:53:24;;;;;;;0.50;0.20;;;18.50;1.00;;;;;;5038642;28;20200;-69
2021/08/02 07:55:50;;;;;;;0.40;0.20;;;18.30;1.00;;;;;;5034896;28;20893;-65
2021/08/02 07:58:15;;;;;;;2.40;0.40;;;18.30;1.00;;;;;;5033597;28;20224;-66
2021/08/02 08:00:41;;;;;;;0.40;0.20;;;17.80;99.90;;;;;;5037197;28;20185;-66
2021/08/02 08:03:07;;;;;;;0.40;0.20;;;17.70;99.90;;;;;;5036943;28;20184;-65
2021/08/02 08:05:32;;;;;;;0.50;0.30;;;17.40;1.00;;;;;;5037041;28;20193;-65
2021/08/02 08:07:58;;;;;;;0.40;0.20;;;17.20;12.40;;;;;;5036806;28;20712;-65
2021/08/02 08:10:26;;;;;;;0.40;0.20;;;17.40;99.30;;;;;;5037079;28;20630;-65
2021/08/02 08:12:52;;;;;;;0.40;0.20;;;17.40;1.00;;;;;;5036893;28;20195;-63
2021/08/02 08:15:19;;;;;;;0.40;0.20;;;17.20;26.10;;;;;;5037240;28;20877;-63
2021/08/02 08:17:45;;;;;;;0.60;0.20;;;17.40;99.90;;;;;;5036901;28;20440;-62
2021/08/02 08:20:13;;;;;;;0.97;0.77;;;17.20;99.90;;;;;;5036698;28;20896;-62
2021/08/02 08:22:39;;;;;;;0.60;0.50;;;16.40;1.00;;;;;;5036823;28;20458;-64
2021/08/02 08:25:06;;;;;;;0.40;0.20;;;15.80;99.90;;;;;;5036604;28;20909;-62
2021/08/02 08:27:32;;;;;;;0.50;0.40;;;15.50;99.90;;;;;;5036204;28;20416;-63
2021/08/02 08:29:57;;;;;;;0.40;0.20;;;15.50;99.90;;;;;;5036499;28;20424;-63
2021/08/02 08:32:23;;;;;;;0.50;0.33;;;15.80;99.90;;;;;;5036611;28;20778;-63
2021/08/02 08:34:49;;;;;;;0.40;0.20;;;16.00;99.90;;;;;;5036705;28;20486;-63
2021/08/02 08:37:14;;;;;;;1.07;0.43;;;15.90;99.90;;;;;;5036256;28;20265;-63
2021/08/02 08:39:40;;;;;;;0.40;0.20;;;16.00;99.90;;;;;;5035800;28;20177;-64
2021/08/02 08:42:07;;;;;;;0.40;0.20;;;16.30;99.90;;;;;;5036056;28;20251;-64
2021/08/02 08:44:34;;;;;;;0.40;0.20;;;16.40;99.90;;;;;;5036439;28;20522;-65
2021/08/02 08:47:00;;;;;;;0.40;0.20;;;16.90;99.90;;;;;;5036323;28;20514;-63
2021/08/02 08:49:26;;;;;;;0.50;0.30;;;17.10;99.90;;;;;;5035999;28;20552;-63
2021/08/02 08:51:53;;;;;;;0.40;0.20;;;17.10;99.90;;;;;;5034485;28;20543;-68
2021/08/02 08:54:19;;;;;;;0.40;0.20;;;17.30;99.90;;;;;;5035005;28;20247;-65
2021/08/02 08:56:44;;;;;;;0.40;0.20;;;17.70;99.90;;;;;;5035880;28;20830;-64
2021/08/02 08:59:13;;;;;;;0.40;0.20;;;18.00;83.10;;;;;;5035961;28;20193;-64
2021/08/02 09:01:40;;;;;;;0.40;0.10;;;18.10;1.00;;;;;;5035956;28;20213;-64
2021/08/02 09:04:06;;;;;;;0.40;0.20;;;18.50;1.00;;;;;;5040748;28;20443;-64
2021/08/02 09:06:43;;;;;;;0.40;0.20;;;18.80;1.00;;;;;;5056035;28;20738;-65
2021/08/02 09:09:09;;;;;;;0.40;0.20;;;19.00;1.00;;;;;;5036347;28;20479;-68
2021/08/02 09:11:34;;;;;;;2.47;0.40;;;19.40;1.00;;;;;;5037308;28;20831;-68
2021/08/02 09:14:09;;;;;;;0.50;0.30;;;19.40;1.00;;;;;;5040472;28;20186;-70
2021/08/02 09:16:35;;;;;;;0.40;0.20;;;19.50;1.00;;;;;;5036927;28;20204;-67
2021/08/02 09:19:04;;;;;;;0.40;0.20;;;19.40;1.00;;;;;;5037920;28;20515;-68
2021/08/02 09:21:59;;;;;;;0.40;0.20;;;19.60;1.00;;;;;;5038381;28;20459;-68
2021/08/02 09:24:32;;;;;;;0.57;0.30;;;19.70;1.00;;;;;;5027651;28;20897;-66
2021/08/02 09:26:58;;;;;;;0.70;0.40;;;19.80;1.00;;;;;;5036437;28;20436;-68
2021/08/02 09:29:28;;;;;;;0.40;0.20;;;20.10;1.00;;;;;;5037244;28;20467;-68
2021/08/02 09:31:54;;;;;;;0.40;0.20;;;19.90;99.90;;;;;;5036475;28;20186;-67
2021/08/02 09:34:22;;;;;;;0.40;0.20;;;19.60;1.00;;;;;;5036001;28;20420;-67
2021/08/02 09:36:53;;;;;;;0.40;0.20;;;19.60;1.00;;;;;;5035972;28;20687;-67
2021/08/02 09:39:19;;;;;;;0.40;0.20;;;19.20;1.00;;;;;;5034509;28;20459;-67
2021/08/02 09:41:45;;;;;;;0.60;0.30;;;19.30;1.00;;;;;;5036141;28;20745;-67
2021/08/02 09:44:22;;;;;;;0.40;0.17;;;19.20;1.00;;;;;;5036464;28;20539;-66
2021/08/02 09:46:55;;;;;;;0.40;0.20;;;19.50;99.90;;;;;;5036191;28;20436;-66
2021/08/02 09:49:21;;;;;;;0.47;0.27;;;19.70;99.90;;;;;;5036622;28;20459;-67
2021/08/02 09:51:46;;;;;;;0.50;0.20;;;20.20;99.90;;;;;;5036840;28;20893;-66
2021/08/02 09:54:29;;;;;;;0.40;0.17;;;20.20;1.00;;;;;;5036057;28;20304;-68
2021/08/02 09:56:55;;;;;;;0.40;0.20;;;20.70;1.00;;;;;;5035806;28;20177;-65
2021/08/02 09:59:21;;;;;;;0.40;0.20;;;20.40;99.90;;;;;;5035380;28;20905;-67
2021/08/02 10:01:49;;;;;;;1.00;0.90;;;20.10;1.00;;;;;;5035529;28;20424;-65
2021/08/02 10:04:15;;;;;;;0.40;0.20;;;19.80;37.20;;;;;;5041355;28;20440;-65
2021/08/02 10:06:41;;;;;;;0.40;0.20;;;19.60;99.90;;;;;;5055028;28;20896;-66
2021/08/02 10:09:09;;;;;;;0.60;0.47;;;19.60;99.90;;;;;;5054487;28;20458;-69
2021/08/02 10:11:35;;;;;;;0.43;0.30;;;19.70;1.00;;;;;;5055735;28;20423;-69
2021/08/02 10:14:01;;;;;;;0.47;0.20;;;19.90;1.00;;;;;;5054741;28;20890;-68
2021/08/02 10:16:29;;;;;;;0.40;0.20;;;20.10;44.20;;;;;;5057114;28;20224;-68
2021/08/02 10:19:06;;;;;;;0.40;0.20;;;20.30;1.00;;;;;;5044796;28;20464;-68
2021/08/02 10:21:46;;;;;;;0.40;0.20;;;20.50;12.20;;;;;;5035432;28;20424;-68
2021/08/02 10:24:14;;;;;;;0.40;0.20;;;20.60;1.00;;;;;;5035338;28;20436;-66
2021/08/02 10:26:40;;;;;;;0.40;0.20;;;20.30;99.90;;;;;;5035740;28;20440;-66
2021/08/02 10:29:08;;;;;;;0.70;0.40;;;20.30;1.00;;;;;;5035147;28;20474;-66
2021/08/02 10:31:48;;;;;;;0.40;0.20;;;20.10;1.00;;;;;;5035102;28;20436;-66
2021/08/02 10:34:16;;;;;;;0.40;0.10;;;20.30;99.90;;;;;;5034970;28;20950;-65
2021/08/02 10:36:42;;;;;;;0.50;0.20;;;20.20;1.00;;;;;;5035995;28;20444;-65
2021/08/02 10:39:07;;;;;;;0.50;0.40;;;20.60;1.00;;;;;;5035295;28;20428;-68
2021/08/02 10:41:33;;;;;;;0.40;0.20;;;21.00;52.50;;;;;;5033659;28;20439;-68
2021/08/02 10:44:12;;;;;;;0.60;0.37;;;21.30;1.00;;;;;;5034405;28;20691;-69
2021/08/02 10:46:38;;;;;;;0.40;0.20;;;21.70;1.00;;;;;;5034382;28;20496;-68
2021/08/02 10:49:13;;;;;;;0.40;0.20;;;21.40;1.00;;;;;;5034013;28;20576;-69
2021/08/02 10:51:56;;;;;;;0.50;0.30;;;21.30;1.00;;;;;;5034471;28;20516;-68
2021/08/02 10:54:22;;;;;;;1.73;0.63;;;21.30;99.90;;;;;;5035361;28;20886;-69
2021/08/02 10:56:48;;;;;;;1.33;1.13;;;18.80;1.00;;;;;;5034556;28;20482;-67
2021/08/02 10:59:21;;;;;;;0.73;0.30;;;16.30;25.50;;;;;;5035230;28;20511;-67
2021/08/02 11:01:52;;;;;;;0.50;0.30;;;15.40;99.90;;;;;;5035835;28;20448;-67
2021/08/02 11:04:21;;;;;;;0.52;0.28;;;15.10;99.90;;;;;;5040132;28;20462;-67
2021/08/02 11:06:48;;;;;;;0.50;0.30;;;14.70;99.90;;;;;;5054169;28;20195;-68
2021/08/02 11:09:14;;;;;;;0.50;0.20;;;14.50;99.90;;;;;;5052942;28;20234;-66
2021/08/02 11:11:40;;;;;;;0.40;0.20;;;14.60;99.90;;;;;;5052996;28;20172;-66
2021/08/02 11:14:08;;;;;;;0.40;0.30;;;14.70;99.90;;;;;;5052809;28;20181;-65
2021/08/02 11:16:40;;;;;;;1.13;0.57;;;14.70;99.90;;;;;;5054611;28;20420;-66
2021/08/02 11:19:27;;;;;;;0.82;0.63;;;14.80;99.90;;;;;;5055694;28;20663;-66
2021/08/02 11:21:55;;;;;;;0.40;0.20;;;15.00;99.90;;;;;;5055467;28;20181;-66
2021/08/02 11:24:21;;;;;;;0.40;0.20;;;15.10;99.90;;;;;;5053686;28;20181;-67
2021/08/02 11:26:51;;;;;;;0.93;0.90;;;15.50;99.90;;;;;;5055169;28;20184;-66
2021/08/02 11:29:25;;;;;;;0.40;0.20;;;15.80;99.90;;;;;;5058222;28;20501;-67
2021/08/02 11:32:03;;;;;;;0.40;0.20;;;16.10;99.90;;;;;;5053707;28;20423;-67
2021/08/02 11:34:29;;;;;;;0.40;0.20;;;16.50;99.90;;;;;;5032800;28;20173;-68
2021/08/02 11:37:05;;;;;;;0.40;0.20;;;16.80;99.90;;;;;;5034874;28;20431;-66
2021/08/02 11:39:39;;;;;;;0.50;0.40;;;16.90;99.90;;;;;;5035299;28;20926;-66
2021/08/02 11:42:16;;;;;;;0.50;0.33;;;17.00;99.90;;;;;;5034788;28;20882;-66
2021/08/02 11:44:43;;;;;;;0.50;0.40;;;16.90;99.90;;;;;;5015091;28;20424;-65
2021/08/02 11:47:11;;;;;;;0.40;0.20;;;16.90;99.90;;;;;;5014574;28;20463;-66
2021/08/02 11:49:38;;;;;;;0.40;0.20;;;17.10;99.90;;;;;;5029838;28;20464;-67
2021/08/02 11:52:05;;;;;;;0.40;0.17;;;17.40;14.90;;;;;;5034154;28;20421;-67
2021/08/02 11:54:31;;;;;;;1.03;0.83;;;17.80;1.00;;;;;;5033023;28;20436;-64
2021/08/02 11:56:57;;;;;;;0.40;0.10;;;18.20;1.00;;;;;;5033191;28;20975;-64
2021/08/02 11:59:28;;;;;;;0.80;0.20;;;18.40;1.00;;;;;;5032985;28;20432;-64
2021/08/02 12:01:59;;;;;;;0.50;0.20;;;18.30;1.00;;;;;;5032765;28;20432;-66
2021/08/02 12:04:26;;;;;;;0.40;0.20;;;18.70;99.90;;;;;;5040712;28;20771;-64
2021/08/02 12:06:55;;;;;;;0.70;0.53;;;18.70;99.90;;;;;;5051847;28;20445;-64
2021/08/02 12:09:34;;;;;;;0.40;0.20;;;19.10;99.90;;;;;;5051774;28;20477;-67
2021/08/02 12:12:01;;;;;;;0.40;0.20;;;19.30;99.90;;;;;;5052065;28;20492;-68
2021/08/02 12:14:30;;;;;;;0.40;0.20;;;19.70;1.00;;;;;;5053120;28;20864;-66
2021/08/02 12:17:08;;;;;;;0.40;0.20;;;20.20;22.50;;;;;;5052847;28;20506;-66
2021/08/02 12:19:51;;;;;;;0.40;0.10;;;20.40;9.60;;;;;;5052328;28;20419;-65
2021/08/02 12:22:19;;;;;;;0.40;0.20;;;20.50;71.70;;;;;;5052862;28;20431;-62
2021/08/02 12:24:57;;;;;;;0.50;0.20;;;20.80;1.00;;;;;;5052900;28;20419;-65
2021/08/02 12:27:26;;;;;;;0.50;0.30;;;20.70;1.00;;;;;;5052870;28;20816;-64
2021/08/02 12:29:59;;;;;;;0.40;0.10;;;20.40;1.00;;;;;;5052563;28;20818;-64
2021/08/02 12:32:56;;;;;;;0.40;0.20;;;20.40;99.90;;;;;;5034294;28;20436;-65
2021/08/02 12:35:22;;;;;;;0.97;0.80;;;20.30;99.90;;;;;;5021097;28;20428;-64
2021/08/02 12:37:48;;;;;;;0.40;0.20;;;20.60;1.00;;;;;;5033146;28;20751;-62
2021/08/02 12:40:16;;;;;;;0.40;0.20;;;20.80;99.90;;;;;;5032809;28;20189;-67
2021/08/02 12:42:47;;;;;;;0.40;0.20;;;20.80;1.00;;;;;;5032807;28;20493;-66
2021/08/02 12:45:14;;;;;;;0.40;0.20;;;20.90;99.90;;;;;;5035186;28;20751;-63
2021/08/02 12:47:40;;;;;;;0.50;0.20;;;20.80;81.30;;;;;;5037166;28;20412;-63
2021/08/02 12:50:08;;;;;;;0.90;0.30;;;20.50;99.90;;;;;;5036475;28;20439;-66
2021/08/02 12:52:33;;;;;;;0.50;0.30;;;20.00;99.90;;;;;;5036285;28;20804;-65
2021/08/02 12:55:00;;;;;;;0.40;0.20;;;20.10;1.00;;;;;;5043292;28;20447;-65
2021/08/02 12:57:33;;;;;;;0.60;0.30;;;20.30;1.00;;;;;;5056174;28;20476;-65